Time;durP1;ratioP1;P1;durP2;ratioP2;P2;SDS_P1;SDS_P2;PMS_P1;PMS_P2;Temp;Humidity;BMP_temperature;BMP_pressure;BME280_temperature;BME280_humidity;BME280_pressure;Samples;Min_cycle;Max_cycle;Signal;HPM_P1;HPM_P2
2023/04/09 00:00:38;;;;;;;19.50;11.87;;;5.40;48.70;;;;;;5028301;28;46364;-69
2023/04/09 00:03:04;;;;;;;21.60;12.77;;;5.40;48.70;;;;;;5027432;28;46386;-69
2023/04/09 00:05:29;;;;;;;22.67;13.83;;;5.40;49.10;;;;;;5026476;28;46382;-69
2023/04/09 00:07:56;;;;;;;21.43;13.73;;;5.40;48.90;;;;;;5028695;28;46386;-69
2023/04/09 00:10:21;;;;;;;18.90;12.53;;;5.50;48.80;;;;;;5032894;28;46424;-69
2023/04/09 00:12:47;;;;;;;23.77;14.43;;;5.50;48.80;;;;;;5029174;28;45812;-69
2023/04/09 00:15:13;;;;;;;24.73;13.70;;;5.50;48.80;;;;;;5031494;28;46527;-71
2023/04/09 00:17:39;;;;;;;22.93;14.27;;;5.50;48.80;;;;;;5031448;28;47280;-71
2023/04/09 00:20:06;;;;;;;24.30;14.60;;;5.50;48.80;;;;;;5028904;28;46649;-70
2023/04/09 00:22:32;;;;;;;23.23;15.37;;;5.60;48.80;;;;;;5029970;28;45942;-69
2023/04/09 00:24:58;;;;;;;26.30;15.70;;;5.60;48.80;;;;;;5032133;28;46386;-69
2023/04/09 00:27:23;;;;;;;23.70;15.07;;;5.60;48.80;;;;;;5030211;28;47078;-70
2023/04/09 00:29:49;;;;;;;24.30;14.60;;;5.70;48.90;;;;;;5028563;28;45791;-70
2023/04/09 00:32:15;;;;;;;23.10;14.57;;;5.70;48.90;;;;;;5025571;28;46342;-70
2023/04/09 00:34:40;;;;;;;19.43;13.40;;;5.80;49.00;;;;;;5032594;28;45820;-70
2023/04/09 00:37:06;;;;;;;19.57;12.53;;;5.80;49.00;;;;;;5031248;28;46437;-70
2023/04/09 00:39:31;;;;;;;22.50;13.77;;;5.80;49.00;;;;;;5027986;28;46516;-70
2023/04/09 00:42:01;;;;;;;21.13;13.73;;;5.70;49.00;;;;;;5029035;28;46393;-70
2023/04/09 00:44:26;;;;;;;21.53;14.20;;;5.80;49.00;;;;;;5028160;28;46479;-70
2023/04/09 00:46:53;;;;;;;21.60;14.73;;;5.70;48.90;;;;;;5025875;28;46372;-71
2023/04/09 00:49:19;;;;;;;22.40;13.53;;;5.80;49.00;;;;;;5027854;28;45832;-70
2023/04/09 00:51:45;;;;;;;23.13;14.90;;;5.70;48.90;;;;;;5030547;28;46311;-70
2023/04/09 00:54:11;;;;;;;24.37;15.10;;;5.80;49.00;;;;;;5029474;28;46569;-70
2023/04/09 00:56:37;;;;;;;23.70;14.30;;;5.70;48.90;;;;;;5034285;28;46355;-69
2023/04/09 00:59:03;;;;;;;22.43;15.40;;;5.70;48.90;;;;;;5025095;28;46640;-70
2023/04/09 01:01:29;;;;;;;30.60;16.30;;;5.80;49.00;;;;;;5033322;28;46472;-70
2023/04/09 01:03:55;;;;;;;22.60;15.30;;;5.80;49.00;;;;;;5032681;28;46389;-70
2023/04/09 01:06:38;;;;;;;20.20;13.87;;;5.80;49.00;;;;;;5027552;28;46401;-69
2023/04/09 01:09:27;;;;;;;22.17;13.80;;;5.80;49.00;;;;;;5026813;28;46548;-70
2023/04/09 01:12:06;;;;;;;22.03;14.07;;;5.80;49.30;;;;;;5029302;28;46431;-70
2023/04/09 01:14:43;;;;;;;23.40;14.83;;;5.70;49.20;;;;;;5029502;28;46324;-69
2023/04/09 01:17:18;;;;;;;24.20;14.83;;;5.70;49.40;;;;;;5028583;28;46235;-69
2023/04/09 01:19:53;;;;;;;18.90;13.20;;;5.70;49.50;;;;;;5027122;28;45836;-70
2023/04/09 01:22:41;;;;;;;24.67;14.77;;;5.70;49.90;;;;;;5024123;28;46540;-69
2023/04/09 01:25:25;;;;;;;22.17;14.23;;;5.70;49.90;;;;;;5027849;28;46342;-70
2023/04/09 01:28:15;;;;;;;22.60;12.90;;;5.70;49.70;;;;;;5024228;28;46032;-70
2023/04/09 01:30:46;;;;;;;22.90;14.13;;;5.70;49.90;;;;;;5032429;28;46356;-70
2023/04/09 01:33:14;;;;;;;22.43;13.73;;;5.80;49.70;;;;;;5029632;28;46362;-70
2023/04/09 01:35:43;;;;;;;22.70;13.73;;;5.80;49.60;;;;;;5028137;28;46370;-70
2023/04/09 01:38:10;;;;;;;22.70;14.00;;;5.80;49.90;;;;;;5029551;28;46370;-70
2023/04/09 01:40:36;;;;;;;22.50;13.80;;;5.80;50.00;;;;;;5028561;28;46548;-70
2023/04/09 01:43:02;;;;;;;24.90;13.90;;;5.80;50.10;;;;;;5032328;28;46201;-70
2023/04/09 01:45:28;;;;;;;20.67;12.83;;;5.70;50.20;;;;;;5030501;28;46694;-70
2023/04/09 01:47:55;;;;;;;21.30;13.30;;;5.80;50.30;;;;;;5028543;28;46223;-70
2023/04/09 01:50:21;;;;;;;24.10;13.57;;;5.80;50.20;;;;;;5026465;28;46576;-70
2023/04/09 01:52:47;;;;;;;27.23;15.17;;;5.80;50.10;;;;;;5028407;28;46341;-71
2023/04/09 01:55:13;;;;;;;22.17;15.07;;;5.80;50.00;;;;;;5027855;28;46274;-69
2023/04/09 01:57:38;;;;;;;21.93;13.73;;;5.80;50.00;;;;;;5029968;28;46445;-69
2023/04/09 02:00:08;;;;;;;25.60;14.90;;;5.80;50.20;;;;;;5029296;28;46374;-71
2023/04/09 02:02:45;;;;;;;24.53;14.40;;;5.80;50.50;;;;;;5030536;28;45807;-70
2023/04/09 02:05:14;;;;;;;26.97;15.03;;;5.80;50.40;;;;;;5028791;28;46471;-71
2023/04/09 02:07:46;;;;;;;22.20;14.47;;;5.80;50.40;;;;;;5027687;28;46365;-69
2023/04/09 02:10:12;;;;;;;24.23;14.73;;;5.70;50.50;;;;;;5030434;28;46601;-70
2023/04/09 02:12:43;;;;;;;25.83;14.67;;;5.70;50.70;;;;;;5030216;28;46477;-70
2023/04/09 02:15:09;;;;;;;23.13;14.50;;;5.70;50.70;;;;;;5029583;28;46244;-70
2023/04/09 02:17:35;;;;;;;22.97;14.43;;;5.70;50.80;;;;;;5028404;28;47227;-70
2023/04/09 02:20:01;;;;;;;29.60;15.70;;;5.70;50.80;;;;;;5025468;28;46461;-70
2023/04/09 02:22:26;;;;;;;27.57;16.13;;;5.80;50.80;;;;;;5030677;28;45935;-71
2023/04/09 02:24:53;;;;;;;23.40;14.03;;;5.80;50.60;;;;;;5027536;28;46339;-70
2023/04/09 02:27:18;;;;;;;20.80;14.40;;;5.80;50.50;;;;;;5027712;28;45940;-70
2023/04/09 02:29:44;;;;;;;23.40;15.00;;;5.90;50.60;;;;;;5033957;28;45895;-70
2023/04/09 02:32:09;;;;;;;24.57;15.20;;;5.90;50.30;;;;;;5030733;28;46450;-70
2023/04/09 02:34:35;;;;;;;25.03;15.43;;;6.00;50.00;;;;;;5030760;28;46415;-69
2023/04/09 02:37:00;;;;;;;23.50;14.33;;;6.00;49.80;;;;;;5030762;28;47260;-69
2023/04/09 02:39:26;;;;;;;22.07;13.80;;;6.00;49.80;;;;;;5028175;28;46321;-69
2023/04/09 02:41:52;;;;;;;23.87;14.53;;;6.00;50.00;;;;;;5035296;28;46453;-69
2023/04/09 02:44:17;;;;;;;23.17;14.27;;;5.90;50.20;;;;;;5034331;28;46441;-69
2023/04/09 02:46:47;;;;;;;23.73;14.00;;;5.90;50.30;;;;;;5033506;28;46259;-69
2023/04/09 02:49:13;;;;;;;22.77;14.67;;;5.90;50.50;;;;;;5028603;28;46631;-69
2023/04/09 02:51:39;;;;;;;22.80;15.67;;;5.90;50.60;;;;;;5029473;28;46458;-69
2023/04/09 02:54:04;;;;;;;25.70;16.70;;;5.90;50.70;;;;;;5033417;28;46453;-70
2023/04/09 02:56:30;;;;;;;26.93;17.13;;;5.90;50.80;;;;;;5031678;28;46311;-70
2023/04/09 02:58:55;;;;;;;28.50;17.07;;;5.90;50.90;;;;;;5027832;28;46446;-70
2023/04/09 03:01:21;;;;;;;31.77;17.20;;;5.90;50.90;;;;;;5031047;28;46282;-69
2023/04/09 03:03:47;;;;;;;27.37;16.43;;;5.90;50.70;;;;;;5031065;28;46532;-69
2023/04/09 03:06:12;;;;;;;24.63;14.90;;;5.90;50.70;;;;;;5032678;28;46481;-69
2023/04/09 03:08:38;;;;;;;20.53;14.17;;;5.90;50.80;;;;;;5028916;28;46308;-70
2023/04/09 03:11:04;;;;;;;22.53;13.93;;;5.90;50.90;;;;;;5029398;28;46434;-70
2023/04/09 03:13:29;;;;;;;22.77;14.10;;;5.80;51.10;;;;;;5031386;28;46410;-70
2023/04/09 03:15:55;;;;;;;24.93;13.33;;;5.80;51.20;;;;;;5033252;28;46501;-70
2023/04/09 03:18:20;;;;;;;21.67;13.70;;;5.70;51.40;;;;;;5028658;28;46354;-70
2023/04/09 03:20:46;;;;;;;23.80;13.10;;;5.70;51.50;;;;;;5030383;28;46430;-70
2023/04/09 03:23:12;;;;;;;27.73;13.50;;;5.70;51.40;;;;;;5028953;28;46401;-70
2023/04/09 03:25:38;;;;;;;18.83;12.30;;;5.60;51.50;;;;;;5028806;28;46498;-70
2023/04/09 03:28:03;;;;;;;24.70;14.07;;;5.60;51.60;;;;;;5028662;28;46337;-70
2023/04/09 03:30:29;;;;;;;22.33;13.57;;;5.60;51.70;;;;;;5036174;28;46574;-70
2023/04/09 03:32:55;;;;;;;26.53;14.03;;;5.70;51.80;;;;;;5029702;28;46465;-69
2023/04/09 03:35:20;;;;;;;20.13;13.90;;;5.70;51.70;;;;;;5033800;28;47223;-68
2023/04/09 03:37:46;;;;;;;20.77;13.93;;;5.70;51.70;;;;;;5034175;28;46417;-69
2023/04/09 03:40:12;;;;;;;22.30;13.63;;;5.60;51.60;;;;;;5031058;28;46833;-69
2023/04/09 03:42:38;;;;;;;20.27;14.00;;;5.60;51.60;;;;;;5026841;28;46296;-69
2023/04/09 03:45:05;;;;;;;21.10;13.63;;;5.60;51.70;;;;;;5030091;28;46979;-69
2023/04/09 03:47:31;;;;;;;21.90;14.03;;;5.60;51.90;;;;;;5028577;28;46374;-69
2023/04/09 03:49:57;;;;;;;22.17;15.40;;;5.60;52.00;;;;;;5030748;28;46306;-69
2023/04/09 03:52:23;;;;;;;23.27;15.50;;;5.60;52.10;;;;;;5032247;28;46221;-69
2023/04/09 03:54:48;;;;;;;26.00;15.27;;;5.50;52.30;;;;;;5027967;28;46420;-69
2023/04/09 03:57:14;;;;;;;26.00;15.47;;;5.50;52.30;;;;;;5034630;28;45922;-69
2023/04/09 03:59:39;;;;;;;26.00;14.97;;;5.60;52.20;;;;;;5029133;28;46600;-69
2023/04/09 04:02:05;;;;;;;23.60;15.70;;;5.60;52.00;;;;;;5030626;28;46657;-69
2023/04/09 04:04:31;;;;;;;21.37;13.97;;;5.60;52.00;;;;;;5028730;28;46437;-70
2023/04/09 04:06:56;;;;;;;20.83;12.97;;;5.60;52.10;;;;;;5032711;28;46294;-71
2023/04/09 04:09:22;;;;;;;23.33;14.80;;;5.60;52.10;;;;;;5025764;28;46409;-69
2023/04/09 04:11:47;;;;;;;22.00;13.50;;;5.70;52.20;;;;;;5030808;28;46002;-69
2023/04/09 04:14:13;;;;;;;28.50;13.57;;;5.60;52.10;;;;;;5030467;28;46430;-69
2023/04/09 04:16:40;;;;;;;23.87;15.10;;;5.70;52.20;;;;;;5026919;28;46397;-69
2023/04/09 04:19:05;;;;;;;22.77;14.90;;;5.70;52.20;;;;;;5030403;28;46499;-70
2023/04/09 04:21:31;;;;;;;25.20;15.03;;;5.60;52.20;;;;;;5027946;28;46572;-68
2023/04/09 04:23:57;;;;;;;23.67;14.63;;;5.60;52.20;;;;;;5027022;28;46417;-70
2023/04/09 04:26:22;;;;;;;24.00;14.50;;;5.70;52.40;;;;;;5026665;28;46226;-69
2023/04/09 04:28:48;;;;;;;22.90;12.90;;;5.60;52.30;;;;;;5026897;28;46824;-69
2023/04/09 04:31:14;;;;;;;18.60;12.30;;;5.60;52.30;;;;;;5033911;28;46326;-69
2023/04/09 04:33:41;;;;;;;22.93;13.87;;;5.60;52.40;;;;;;5034452;28;46386;-70
2023/04/09 04:36:09;;;;;;;21.73;12.77;;;5.60;52.50;;;;;;5033037;28;46458;-69
2023/04/09 04:38:35;;;;;;;23.43;15.77;;;5.50;52.70;;;;;;5028233;28;46584;-69
2023/04/09 04:41:02;;;;;;;25.83;15.27;;;5.50;52.70;;;;;;5029693;28;46478;-69
2023/04/09 04:43:28;;;;;;;21.70;14.77;;;5.50;52.60;;;;;;5030748;28;46405;-69
2023/04/09 04:45:54;;;;;;;21.77;14.30;;;5.60;52.60;;;;;;5027999;28;46370;-69
2023/04/09 04:48:20;;;;;;;23.80;13.50;;;5.60;52.70;;;;;;5032870;28;46449;-69
2023/04/09 04:50:46;;;;;;;20.40;13.13;;;5.60;52.70;;;;;;5030541;28;46464;-69
2023/04/09 04:53:11;;;;;;;19.00;12.10;;;5.60;52.70;;;;;;5026486;28;47228;-70
2023/04/09 04:55:38;;;;;;;19.83;13.60;;;5.60;52.70;;;;;;5027211;28;46516;-69
2023/04/09 04:58:04;;;;;;;18.03;12.20;;;5.60;52.80;;;;;;5027460;28;46516;-69
2023/04/09 05:00:30;;;;;;;19.40;13.10;;;5.60;53.90;;;;;;5029410;28;45755;-70
2023/04/09 05:02:56;;;;;;;22.17;13.30;;;5.70;53.70;;;;;;5028572;28;46619;-70
2023/04/09 05:05:21;;;;;;;17.27;11.37;;;5.70;52.40;;;;;;5029743;28;46423;-70
2023/04/09 05:07:47;;;;;;;26.80;16.23;;;5.70;52.30;;;;;;5026051;28;45804;-70
2023/04/09 05:10:13;;;;;;;31.87;19.67;;;5.70;52.70;;;;;;5028576;28;46517;-69
2023/04/09 05:12:38;;;;;;;38.40;21.93;;;5.50;53.50;;;;;;5027789;28;46426;-70
2023/04/09 05:15:05;;;;;;;33.10;20.53;;;5.50;54.00;;;;;;5029202;28;46260;-69
2023/04/09 05:17:31;;;;;;;47.90;19.53;;;5.50;54.40;;;;;;5025083;28;46248;-70
2023/04/09 05:19:57;;;;;;;30.10;20.10;;;5.40;55.00;;;;;;5030102;28;46530;-70
2023/04/09 05:22:22;;;;;;;38.03;19.83;;;5.40;56.10;;;;;;5028232;28;46535;-70
2023/04/09 05:24:48;;;;;;;42.17;23.07;;;5.40;57.00;;;;;;5028833;28;46407;-69
2023/04/09 05:27:14;;;;;;;49.13;23.77;;;5.40;57.50;;;;;;5029540;28;46445;-70
2023/04/09 05:29:40;;;;;;;42.07;22.73;;;5.50;57.70;;;;;;5026440;28;45879;-69
2023/04/09 05:32:08;;;;;;;44.93;25.10;;;5.60;57.40;;;;;;5024883;28;46889;-70
2023/04/09 05:34:33;;;;;;;50.03;25.80;;;5.70;57.30;;;;;;5031472;28;46353;-67
2023/04/09 05:36:59;;;;;;;50.00;25.50;;;5.70;57.10;;;;;;5030779;28;45926;-69
2023/04/09 05:39:25;;;;;;;47.03;26.43;;;5.80;57.10;;;;;;5028324;28;46628;-69
2023/04/09 05:41:51;;;;;;;49.37;26.30;;;5.70;57.30;;;;;;5031148;28;46385;-69
2023/04/09 05:44:17;;;;;;;54.00;27.40;;;5.70;57.70;;;;;;5034171;28;45799;-68
2023/04/09 05:46:43;;;;;;;54.73;29.57;;;5.80;57.50;;;;;;5026986;28;46117;-68
2023/04/09 05:49:09;;;;;;;58.07;30.17;;;5.80;57.40;;;;;;5028504;28;46405;-68
2023/04/09 05:51:34;;;;;;;100.20;30.40;;;6.00;57.00;;;;;;5034554;28;47055;-68
2023/04/09 05:54:00;;;;;;;63.07;31.43;;;6.10;56.30;;;;;;5041061;28;46457;-68
2023/04/09 05:56:26;;;;;;;65.73;29.80;;;6.20;56.10;;;;;;5028657;28;46434;-67
2023/04/09 05:58:53;;;;;;;63.23;29.07;;;6.30;55.60;;;;;;5029113;28;46393;-68
2023/04/09 06:01:18;;;;;;;130.57;33.00;;;6.40;55.20;;;;;;5028174;28;46432;-68
2023/04/09 06:03:44;;;;;;;55.30;30.10;;;6.50;54.80;;;;;;5024228;28;46417;-67
2023/04/09 06:06:10;;;;;;;69.37;28.20;;;6.50;54.50;;;;;;5031846;28;46518;-68
2023/04/09 06:08:36;;;;;;;89.73;29.80;;;6.50;54.50;;;;;;5032105;28;46577;-67
2023/04/09 06:11:02;;;;;;;65.67;28.30;;;6.50;54.90;;;;;;5033295;28;46477;-68
2023/04/09 06:13:28;;;;;;;66.47;28.17;;;6.50;54.90;;;;;;5031584;28;46592;-68
2023/04/09 06:15:53;;;;;;;65.77;28.40;;;6.40;55.20;;;;;;5030427;28;46433;-68
2023/04/09 06:18:19;;;;;;;58.23;28.10;;;6.50;55.20;;;;;;5028188;28;46358;-68
2023/04/09 06:20:45;;;;;;;58.43;28.40;;;6.60;56.10;;;;;;5029653;28;46894;-68
2023/04/09 06:23:10;;;;;;;49.97;27.87;;;6.80;54.40;;;;;;5034810;28;46469;-68
2023/04/09 06:25:36;;;;;;;51.33;26.13;;;7.20;53.30;;;;;;5027100;28;46438;-68
2023/04/09 06:28:02;;;;;;;50.47;25.00;;;7.40;52.20;;;;;;5029708;28;46515;-67
2023/04/09 06:30:28;;;;;;;48.93;25.47;;;7.30;52.20;;;;;;5029157;28;46568;-68
2023/04/09 06:32:53;;;;;;;56.80;25.27;;;7.40;52.30;;;;;;5031299;28;45931;-66
2023/04/09 06:35:19;;;;;;;43.13;23.90;;;7.50;52.10;;;;;;5033258;28;46518;-67
2023/04/09 06:37:45;;;;;;;41.20;21.53;;;7.40;52.40;;;;;;5033675;28;46683;-67
2023/04/09 06:40:11;;;;;;;38.03;22.03;;;7.40;52.90;;;;;;5030199;28;46440;-67
2023/04/09 06:42:37;;;;;;;47.73;24.20;;;7.50;52.70;;;;;;5032944;28;46492;-67
2023/04/09 06:45:07;;;;;;;40.20;23.53;;;7.60;53.20;;;;;;5032189;28;46413;-66
2023/04/09 06:47:35;;;;;;;31.10;18.60;;;7.90;52.90;;;;;;5032076;28;46382;-66
2023/04/09 06:50:01;;;;;;;34.37;21.13;;;8.20;52.60;;;;;;5028083;28;46420;-67
2023/04/09 06:52:27;;;;;;;32.87;20.90;;;8.00;52.20;;;;;;5029617;28;46423;-66
2023/04/09 06:54:52;;;;;;;31.37;19.37;;;8.00;53.10;;;;;;5029345;28;46437;-66
2023/04/09 06:57:18;;;;;;;34.07;20.20;;;7.90;53.30;;;;;;5031315;28;46428;-67
2023/04/09 06:59:43;;;;;;;34.80;19.93;;;7.90;53.70;;;;;;5028462;28;46400;-67
2023/04/09 07:02:09;;;;;;;33.27;20.10;;;8.00;53.80;;;;;;5030215;28;46433;-67
2023/04/09 07:04:35;;;;;;;30.73;19.60;;;8.20;53.40;;;;;;5029547;28;46349;-68
2023/04/09 07:07:00;;;;;;;25.67;16.17;;;8.50;53.30;;;;;;5034454;28;46288;-67
2023/04/09 07:09:26;;;;;;;25.27;15.57;;;8.50;52.30;;;;;;5031328;28;47019;-68
2023/04/09 07:11:51;;;;;;;23.27;15.10;;;8.50;51.90;;;;;;5031520;28;46536;-68
2023/04/09 07:14:18;;;;;;;24.07;14.20;;;8.60;51.40;;;;;;5033528;28;46559;-68
2023/04/09 07:16:45;;;;;;;24.30;15.23;;;8.70;51.50;;;;;;5033208;28;46334;-67
2023/04/09 07:19:11;;;;;;;21.83;14.67;;;8.80;51.60;;;;;;5014805;28;46621;-67
2023/04/09 07:21:37;;;;;;;22.20;15.20;;;8.90;51.70;;;;;;5030983;28;46477;-68
2023/04/09 07:24:02;;;;;;;26.00;15.50;;;8.90;51.60;;;;;;5032683;28;46660;-68
2023/04/09 07:26:29;;;;;;;21.77;14.67;;;8.90;50.80;;;;;;5028808;28;46825;-68
2023/04/09 07:28:55;;;;;;;23.37;14.13;;;8.90;50.20;;;;;;5027759;28;46049;-68
2023/04/09 07:31:20;;;;;;;20.90;13.20;;;8.80;50.10;;;;;;5022187;28;46522;-67
2023/04/09 07:33:46;;;;;;;19.03;13.60;;;8.80;50.30;;;;;;5028173;28;46698;-68
2023/04/09 07:36:11;;;;;;;20.60;13.60;;;8.70;50.30;;;;;;5023989;28;46771;-67
2023/04/09 07:38:37;;;;;;;18.80;12.57;;;8.70;50.10;;;;;;5024977;28;46488;-70
2023/04/09 07:41:03;;;;;;;23.23;13.90;;;8.80;49.40;;;;;;5029314;28;46417;-68
2023/04/09 07:43:28;;;;;;;21.47;14.20;;;9.10;48.40;;;;;;5025534;28;46382;-68
2023/04/09 07:45:54;;;;;;;36.77;13.33;;;9.30;47.20;;;;;;5031173;28;46595;-69
2023/04/09 07:48:20;;;;;;;18.33;12.40;;;9.30;46.10;;;;;;5028345;28;46538;-69
2023/04/09 07:50:45;;;;;;;18.90;12.77;;;9.40;45.70;;;;;;5029545;28;46405;-68
2023/04/09 07:53:11;;;;;;;18.37;11.90;;;9.40;45.00;;;;;;5028378;28;46589;-69
2023/04/09 07:55:37;;;;;;;17.80;12.13;;;9.20;45.30;;;;;;5033009;28;46919;-68
2023/04/09 07:58:05;;;;;;;17.70;11.17;;;9.30;45.40;;;;;;5028236;28;46908;-68
2023/04/09 08:00:31;;;;;;;19.87;10.00;;;9.40;45.10;;;;;;5024601;28;46439;-69
2023/04/09 08:02:57;;;;;;;15.40;10.90;;;9.50;44.70;;;;;;5028158;28;46422;-68
2023/04/09 08:05:23;;;;;;;16.97;11.40;;;9.60;42.70;;;;;;5030315;28;46586;-67
2023/04/09 08:07:50;;;;;;;17.80;11.40;;;9.50;42.60;;;;;;5030062;28;46421;-68
2023/04/09 08:10:16;;;;;;;15.30;10.37;;;9.40;41.40;;;;;;5028905;28;46468;-67
2023/04/09 08:12:42;;;;;;;15.43;10.37;;;9.40;40.30;;;;;;5027290;28;46512;-67
2023/04/09 08:15:08;;;;;;;15.53;10.80;;;9.60;40.10;;;;;;5027591;28;45944;-65
2023/04/09 08:17:36;;;;;;;17.30;11.40;;;9.70;40.40;;;;;;5026831;28;46389;-65
2023/04/09 08:20:02;;;;;;;16.87;11.50;;;9.90;39.30;;;;;;5028609;28;46443;-68
2023/04/09 08:22:28;;;;;;;14.60;10.90;;;9.90;39.30;;;;;;5026788;28;46378;-66
2023/04/09 08:24:55;;;;;;;20.10;11.50;;;9.90;37.80;;;;;;5027571;28;46290;-68
2023/04/09 08:27:20;;;;;;;15.70;11.37;;;9.60;38.30;;;;;;5028605;28;47312;-67
2023/04/09 08:29:46;;;;;;;20.33;12.33;;;9.40;38.80;;;;;;5030824;28;46707;-67
2023/04/09 08:32:12;;;;;;;15.80;10.87;;;9.40;38.80;;;;;;5030265;28;46485;-67
2023/04/09 08:34:37;;;;;;;16.17;10.30;;;9.70;38.40;;;;;;5027813;28;46672;-67
2023/04/09 08:37:03;;;;;;;19.20;10.77;;;9.70;37.40;;;;;;5026860;28;46466;-66
2023/04/09 08:39:29;;;;;;;16.67;11.93;;;9.60;36.80;;;;;;5026289;28;46330;-68
2023/04/09 08:42:01;;;;;;;16.10;10.70;;;9.70;36.10;;;;;;5030853;28;46572;-66
2023/04/09 08:44:27;;;;;;;16.03;10.83;;;9.60;35.90;;;;;;5029183;28;46510;-68
2023/04/09 08:46:53;;;;;;;14.00;9.90;;;9.40;35.00;;;;;;5027187;28;46369;-68
2023/04/09 08:49:20;;;;;;;14.83;10.63;;;9.30;35.70;;;;;;5027714;28;46339;-68
2023/04/09 08:51:47;;;;;;;14.70;9.90;;;9.60;35.10;;;;;;5029693;28;46366;-66
2023/04/09 08:54:18;;;;;;;15.60;10.10;;;9.90;34.00;;;;;;5024445;28;46186;-68
2023/04/09 08:56:45;;;;;;;14.43;10.13;;;10.30;31.70;;;;;;5022210;28;46663;-67
2023/04/09 08:59:15;;;;;;;15.10;10.20;;;10.60;31.80;;;;;;5027454;28;45817;-65
2023/04/09 09:01:40;;;;;;;13.20;9.13;;;11.10;31.10;;;;;;5027807;28;46544;-66
2023/04/09 09:04:08;;;;;;;15.30;10.70;;;11.10;30.80;;;;;;5034217;28;46496;-66
2023/04/09 09:06:34;;;;;;;14.07;10.30;;;11.20;30.50;;;;;;5023504;28;45978;-68
2023/04/09 09:09:06;;;;;;;17.10;10.23;;;11.40;30.00;;;;;;5031591;28;46416;-67
2023/04/09 09:11:37;;;;;;;13.13;9.40;;;11.20;29.70;;;;;;5024199;28;46417;-67
2023/04/09 09:14:05;;;;;;;13.73;10.20;;;11.20;29.50;;;;;;5025534;28;45855;-68
2023/04/09 09:16:33;;;;;;;13.30;8.70;;;11.20;27.90;;;;;;5029424;28;47089;-69
2023/04/09 09:19:00;;;;;;;14.57;9.40;;;11.30;27.10;;;;;;5024903;28;46418;-68
2023/04/09 09:21:27;;;;;;;14.03;9.27;;;11.50;27.20;;;;;;5027289;28;46427;-68
2023/04/09 09:23:53;;;;;;;13.73;9.20;;;11.40;27.10;;;;;;5027564;28;46682;-69
2023/04/09 09:26:28;;;;;;;13.30;9.13;;;11.30;27.00;;;;;;5031494;28;47291;-67
2023/04/09 09:28:54;;;;;;;12.97;9.27;;;11.40;27.10;;;;;;5025102;28;46303;-68
2023/04/09 09:31:21;;;;;;;12.70;8.47;;;11.60;26.10;;;;;;5027664;28;46434;-65
2023/04/09 09:33:49;;;;;;;12.63;8.70;;;11.80;25.40;;;;;;5028954;28;46471;-65
2023/04/09 09:36:28;;;;;;;13.47;9.53;;;11.70;24.60;;;;;;5029410;28;47310;-68
2023/04/09 09:38:56;;;;;;;13.53;9.57;;;11.70;24.40;;;;;;5022140;28;46549;-66
2023/04/09 09:41:22;;;;;;;13.40;9.13;;;11.90;24.50;;;;;;5027084;28;46471;-66
2023/04/09 09:43:48;;;;;;;12.80;8.47;;;11.90;23.70;;;;;;5022334;28;46680;-67
2023/04/09 09:46:15;;;;;;;14.40;9.47;;;11.90;23.20;;;;;;5030017;28;47991;-67
2023/04/09 09:48:41;;;;;;;13.53;9.50;;;11.90;23.10;;;;;;5025282;28;46464;-68
2023/04/09 09:51:11;;;;;;;13.20;8.70;;;12.00;23.50;;;;;;5027744;28;46291;-67
2023/04/09 09:53:38;;;;;;;13.77;8.43;;;11.90;21.30;;;;;;5024147;28;45977;-66
2023/04/09 09:56:05;;;;;;;13.87;9.00;;;11.70;21.40;;;;;;5029709;28;46375;-66
2023/04/09 09:58:39;;;;;;;12.70;8.37;;;11.80;22.20;;;;;;5026991;28;46370;-66
2023/04/09 10:01:11;;;;;;;14.47;8.67;;;11.90;21.90;;;;;;5027099;28;46442;-67
2023/04/09 10:03:38;;;;;;;13.80;9.30;;;12.10;21.30;;;;;;5032014;28;46497;-67
2023/04/09 10:06:07;;;;;;;13.10;8.60;;;12.40;20.10;;;;;;5028861;28;46506;-65
2023/04/09 10:08:36;;;;;;;12.77;8.10;;;12.90;19.90;;;;;;5028594;28;46304;-67
2023/04/09 10:11:04;;;;;;;13.50;8.97;;;13.20;19.00;;;;;;5029500;28;45928;-67
2023/04/09 10:13:36;;;;;;;13.00;8.57;;;13.20;18.50;;;;;;5030298;28;46610;-66
2023/04/09 10:16:02;;;;;;;11.57;7.97;;;13.00;16.60;;;;;;5025896;28;46995;-64
2023/04/09 10:18:32;;;;;;;15.67;9.60;;;12.90;17.10;;;;;;5024722;28;46550;-68
2023/04/09 10:21:04;;;;;;;14.47;9.43;;;12.80;17.30;;;;;;5025359;28;46509;-67
2023/04/09 10:23:43;;;;;;;15.40;10.10;;;12.60;17.70;;;;;;5026610;28;46496;-69
2023/04/09 10:26:09;;;;;;;13.00;9.27;;;12.40;18.00;;;;;;5024937;28;47034;-68
2023/04/09 10:28:37;;;;;;;15.37;9.67;;;12.20;18.40;;;;;;5025273;28;46437;-69
2023/04/09 10:31:05;;;;;;;13.40;8.87;;;12.50;18.50;;;;;;5026352;28;46744;-69
2023/04/09 10:33:31;;;;;;;12.93;9.10;;;12.60;17.90;;;;;;5024996;28;46367;-68
2023/04/09 10:36:11;;;;;;;14.50;8.93;;;12.90;17.40;;;;;;5026322;28;46389;-68
2023/04/09 10:38:39;;;;;;;13.80;9.30;;;12.90;16.70;;;;;;5024799;28;46663;-68
2023/04/09 10:41:15;;;;;;;14.83;9.43;;;12.90;16.40;;;;;;5029219;28;46574;-68
2023/04/09 10:43:41;;;;;;;14.90;9.20;;;12.90;16.40;;;;;;5028626;28;46475;-68
2023/04/09 10:46:25;;;;;;;12.50;9.20;;;13.00;17.10;;;;;;5024082;28;47020;-68
2023/04/09 10:49:10;;;;;;;16.33;9.77;;;12.90;17.40;;;;;;5023653;28;46482;-68
2023/04/09 10:51:40;;;;;;;14.77;9.60;;;12.70;17.20;;;;;;5025810;28;46367;-67
2023/04/09 10:54:26;;;;;;;13.60;9.23;;;12.50;17.10;;;;;;5032977;28;46884;-68
2023/04/09 10:57:07;;;;;;;12.73;8.60;;;12.70;16.60;;;;;;5026837;28;46061;-69
2023/04/09 10:59:45;;;;;;;12.67;8.73;;;12.80;17.00;;;;;;5027536;28;46307;-70
2023/04/09 11:02:28;;;;;;;13.80;9.40;;;12.80;16.00;;;;;;5035566;28;46339;-69
2023/04/09 11:05:32;;;;;;;14.00;9.50;;;12.60;15.90;;;;;;5034186;28;46470;-68
2023/04/09 11:08:10;;;;;;;16.70;10.40;;;12.70;15.50;;;;;;5032284;28;46685;-68
2023/04/09 11:10:37;;;;;;;15.17;10.27;;;13.10;15.40;;;;;;5030213;28;46519;-68
2023/04/09 11:13:03;;;;;;;14.90;9.47;;;13.40;14.30;;;;;;5031827;28;46694;-69
2023/04/09 11:15:31;;;;;;;13.17;9.17;;;13.50;13.80;;;;;;5029865;28;46623;-69
2023/04/09 11:17:57;;;;;;;12.80;8.50;;;13.70;14.70;;;;;;5026500;28;46828;-68
2023/04/09 11:20:24;;;;;;;11.73;7.80;;;13.80;13.80;;;;;;5028366;28;46509;-68
2023/04/09 11:22:54;;;;;;;12.13;8.10;;;14.00;13.10;;;;;;5027366;28;46451;-69
2023/04/09 11:25:23;;;;;;;10.87;7.67;;;14.10;12.30;;;;;;5030244;28;45808;-66
2023/04/09 11:27:49;;;;;;;13.17;8.90;;;14.10;12.50;;;;;;5031920;28;46786;-66
2023/04/09 11:30:15;;;;;;;13.10;8.90;;;14.00;12.70;;;;;;5032301;28;46454;-67
2023/04/09 11:32:41;;;;;;;14.03;9.23;;;13.90;12.30;;;;;;5027749;28;46461;-67
2023/04/09 11:35:21;;;;;;;12.50;8.17;;;13.80;12.70;;;;;;5030207;28;46757;-68
2023/04/09 11:37:47;;;;;;;13.23;8.73;;;13.80;12.90;;;;;;5027973;28;46615;-67
2023/04/09 11:40:21;;;;;;;13.83;9.80;;;13.60;12.30;;;;;;5028193;28;46409;-68
2023/04/09 11:42:50;;;;;;;13.70;9.17;;;13.60;12.60;;;;;;5029884;28;45883;-68
2023/04/09 11:45:17;;;;;;;13.20;9.60;;;13.70;12.60;;;;;;5030268;28;45978;-66
2023/04/09 11:47:45;;;;;;;13.70;9.10;;;13.90;12.20;;;;;;5029061;28;47156;-64
2023/04/09 11:50:12;;;;;;;13.50;7.70;;;13.80;12.10;;;;;;5031141;28;45865;-66
2023/04/09 11:52:40;;;;;;;12.90;8.20;;;13.80;12.90;;;;;;5028457;28;46385;-65
2023/04/09 11:55:06;;;;;;;15.13;10.43;;;14.00;11.50;;;;;;5025794;28;46492;-68
2023/04/09 11:57:37;;;;;;;16.47;10.10;;;14.00;12.00;;;;;;5025216;28;46503;-68
2023/04/09 12:00:20;;;;;;;15.27;10.30;;;13.90;12.20;;;;;;5026289;28;46338;-66
2023/04/09 12:02:47;;;;;;;14.30;9.67;;;13.40;13.00;;;;;;5027323;28;46685;-65
2023/04/09 12:05:24;;;;;;;14.40;9.60;;;13.40;13.10;;;;;;5026583;28;46443;-65
2023/04/09 12:07:51;;;;;;;13.20;9.60;;;13.40;13.00;;;;;;5029337;28;46708;-66
2023/04/09 12:10:17;;;;;;;14.63;8.97;;;13.20;13.10;;;;;;5031052;28;46452;-67
2023/04/09 12:12:45;;;;;;;13.70;9.10;;;13.20;13.40;;;;;;5025356;28;46348;-66
2023/04/09 12:15:24;;;;;;;13.30;9.37;;;13.10;13.60;;;;;;5026998;28;46375;-70
2023/04/09 12:17:54;;;;;;;15.90;10.27;;;13.30;13.50;;;;;;5030305;28;46828;-69
2023/04/09 12:20:38;;;;;;;12.47;9.03;;;13.50;12.80;;;;;;5027628;28;46421;-69
2023/04/09 12:23:05;;;;;;;14.00;10.30;;;14.10;12.70;;;;;;5023701;28;46516;-68
2023/04/09 12:25:32;;;;;;;13.93;9.47;;;14.10;12.40;;;;;;5027405;28;46581;-68
2023/04/09 12:27:58;;;;;;;12.73;7.93;;;13.70;12.30;;;;;;5023695;28;46675;-68
2023/04/09 12:30:24;;;;;;;12.30;6.40;;;13.30;12.10;;;;;;5027328;28;46449;-67
2023/04/09 12:32:51;;;;;;;11.20;7.87;;;13.10;11.10;;;;;;5030622;28;46352;-68
2023/04/09 12:35:17;;;;;;;11.93;7.43;;;13.10;11.40;;;;;;5028222;28;46425;-68
2023/04/09 12:37:43;;;;;;;11.33;7.90;;;12.90;11.70;;;;;;5025821;28;46701;-67